Create Custom Reports and Graphics: Custom Report

Bell Hill-West

Current Conditions

8/31/26 9:30 PM (-07:00)
Updated Every 15 Minutes
Temp 59.6 °F   4.9
RH 77 %   12
Dew Pt 52.5 °F   0.2
Wet Bulb 56.4 °F   1.8
Wind Dir SSW | 200 °
Wind Spd 5.1 mph   3.1
Wind Gust 9.5 mph   6.0
Solar Rad 0 W/m2   0
BatVolt 12.8 V   0.0

Today & Yesterday

Bell Hill-West

8/31/26 9:30 PM (-07:00)
Updated Every 15 Minutes
Daily Max Temp 82.4 °F   6.9
Time of Max Temp 1300
Daily Min Temp 47.8 °F   0.7
Time of Min Temp 0647
Daily Max Wind 18.8 mph   4.0
Time of Max Wind 1434
Max Wind Dir S | 171 °
Daily Rain 0.00 In
Daily ETo 0.196 in   0.009
Yest MaxT 89.3 °F
Yest MinT 47.2 °F
Yest MaxGst 14.8 mph
Yest Precip 0.00 In
Yest ETo 0.20 In

Last 48 Hours

Bell Hill-West

Hourly Data | America/Los_Angeles
as of 8/31/26 9:38 PM PDT
Date & Time Temp (°F) RH (%) Dew Pt (°F) Wet Bulb (°F) Wind Dir (°) Wind Spd (mph) Wind Gust (mph) Wind Gst Dir (°) Solar Rad (W/m2) Latest Rain (In) Daily Rain (In) Daily Min Temp (°F) Daily Max Temp (°F) Daily ETo (in)
8/31/26 - 2100 62.7 72 53.5 58.1 S | 180 2.6 13.5 WSW | 247 0 0.00 0.00 47.8 82.4 0.196
8/31/26 - 2000 67.9 63 54.7 60.4 SW | 219 6.9 13.8 SSW | 200 27 0.00 0.00 47.8 82.4 0.196
8/31/26 - 1900 73.5 55 56.4 63.0 SW | 233 7.6 13.2 S | 190 185 0.00 0.00 47.8 82.4 0.195
8/31/26 - 1800 76.9 50 56.9 64.0 SW | 231 8.1 15.2 SW | 224 360 0.00 0.00 47.8 82.4 0.188
8/31/26 - 1700 78.9 46 56.2 64.0 SW | 222 8.6 16.5 SW | 226 543 0.00 0.00 47.8 82.4 0.176
8/31/26 - 1600 79.7 42 54.9 63.3 SSW | 208 9.5 15.8 SSW | 196 688 0.00 0.00 47.8 82.4 0.158
8/31/26 - 1500 80.2 38 52.1 61.8 SSW | 194 10.1 18.8 S | 171 794 0.00 0.00 47.8 82.4 0.136
8/31/26 - 1400 80.9 39 53.3 62.6 WSW | 242 8.8 17.2 WSW | 257 844 0.00 0.00 47.8 82.4 0.110
8/31/26 - 1300 81.2 38 53.0 62.5 W | 265 6.4 12.5 W | 277 835 0.00 0.00 47.8 82.4 0.084
8/31/26 - 1200 79.0 40 52.4 61.7 WNW | 290 4.6 11.8 WNW | 297 772 0.00 0.00 47.8 80.3 0.058
8/31/26 - 1100 74.5 46 52.2 60.6 N | 359 2.2 5.8 NNE | 23 654 0.00 0.00 47.8 77.6 0.036
8/31/26 - 1000 69.8 50 50.2 58.2 N | 8 2.2 5.8 N | 5 497 0.00 0.00 47.8 72.5 0.019
8/31/26 - 0900 63.7 60 49.4 55.9 ESE | 122 0.9 4.4 NNE | 25 310 0.00 0.00 47.8 67.4 0.007
8/31/26 - 0800 51.9 80 46.0 49.3 S | 186 1.7 3.8 S | 180 112 0.00 0.00 47.8 57.3 0.001
8/31/26 - 0700 48.5 86 44.4 46.9 S | 182 1.9 3.4 S | 182 3 0.00 0.00 47.8 54.8 0.000
8/31/26 - 0600 48.9 86 44.9 47.4 S | 189 2.3 3.8 S | 179 0 0.00 0.00 48.4 54.8 0.000
8/31/26 - 0500 50.1 84 45.5 48.3 S | 187 2.3 3.8 S | 189 0 0.00 0.00 49.2 54.8 0.000
8/31/26 - 0400 51.2 83 46.4 49.3 S | 188 2.8 4.1 S | 185 0 0.00 0.00 50.5 54.8 0.000
8/31/26 - 0300 52.5 82 47.2 50.3 S | 187 2.3 4.1 S | 191 0 0.00 0.00 51.6 54.8 0.000
8/31/26 - 0200 54.3 79 48.0 51.6 SSW | 199 2.3 3.4 SSW | 208 0 0.00 0.00 53.6 54.8 0.000
8/31/26 - 0100 55.7 77 48.6 52.4 SSW | 202 2.5 3.8 SSW | 212 0 0.00 0.00 47.2 89.3 0.205
8/31/26 - 0000 57.8 74 49.8 54.0 SSW | 194 2.4 4.1 SSW | 198 0 0.00 0.00 47.2 89.3 0.205
8/30/26 - 2300 60.9 70 51.3 56.1 S | 189 3.1 4.8 S | 170 0 0.00 0.00 47.2 89.3 0.205
8/30/26 - 2200 64.1 66 52.5 57.9 SSW | 194 2.1 4.1 SSW | 201 0 0.00 0.00 47.2 89.3 0.205
8/30/26 - 2100 72.2 52 53.6 60.9 SSE | 166 0.9 4.4 S | 177 0 0.00 0.00 47.2 89.3 0.205
8/30/26 - 2000 77.7 45 54.4 62.6 S | 185 3.5 8.4 SSW | 207 26 0.00 0.00 47.2 89.3 0.205
8/30/26 - 1900 82.8 37 54.0 63.4 SSW | 201 7.4 14.2 S | 182 181 0.00 0.00 47.2 89.3 0.204
8/30/26 - 1800 86.6 30 51.5 62.6 SSW | 196 7.9 14.8 S | 181 371 0.00 0.00 47.2 89.3 0.195
8/30/26 - 1700 88.5 26 49.3 61.8 SSW | 203 6.8 14.5 S | 176 553 0.00 0.00 47.2 89.3 0.179
8/30/26 - 1600 88.3 26 49.4 61.8 SSW | 202 6.5 11.8 S | 191 699 0.00 0.00 47.2 89.2 0.159
8/30/26 - 1500 88.2 25 48.1 61.2 S | 191 4.7 13.2 S | 183 800 0.00 0.00 47.2 89.2 0.135
8/30/26 - 1400 86.2 25 46.6 60.2 NNW | 342 3.0 10.8 NNE | 23 849 0.00 0.00 47.2 88.0 0.109
8/30/26 - 1300 83.8 29 48.2 60.5 NNE | 14 3.7 11.5 NNE | 18 841 0.00 0.00 47.2 85.3 0.083
8/30/26 - 1200 79.8 36 50.0 60.6 N | 11 3.6 11.8 NNE | 21 774 0.00 0.00 47.2 82.0 0.058
8/30/26 - 1100 74.3 47 52.7 60.8 NW | 322 2.0 5.4 NW | 326 658 0.00 0.00 47.2 77.5 0.035
8/30/26 - 1000 67.6 59 52.8 59.2 NNE | 20 2.0 6.4 N | 8 498 0.00 0.00 47.2 71.9 0.018
8/30/26 - 0900 62.1 67 51.1 56.4 NNE | 24 1.0 4.4 N | 7 311 0.00 0.00 47.2 64.8 0.007
8/30/26 - 0800 51.3 85 47.0 49.6 S | 191 1.8 3.4 S | 187 116 0.00 0.00 47.2 57.5 0.001
8/30/26 - 0700 47.4 91 44.9 46.6 S | 190 2.9 3.8 SSW | 193 4 0.00 0.00 47.2 53.4 0.000
8/30/26 - 0600 47.8 90 44.9 46.8 S | 191 2.0 4.4 SSW | 198 0 0.00 0.00 47.4 53.4 0.000
8/30/26 - 0500 48.6 88 45.2 47.4 S | 190 2.6 3.8 SSW | 195 0 0.00 0.00 48.2 53.4 0.000
8/30/26 - 0400 49.8 84 45.3 48.0 S | 191 2.6 3.8 S | 180 0 0.00 0.00 49.0 53.4 0.000
8/30/26 - 0300 50.9 81 45.4 48.6 S | 191 2.6 3.8 SSW | 195 0 0.00 0.00 50.1 53.4 0.000
8/30/26 - 0200 52.6 78 45.9 49.6 S | 188 3.1 4.4 S | 184 0 0.00 0.00 51.8 53.4 0.000
8/30/26 - 0100 52.9 77 45.8 49.7 SSW | 193 2.4 3.8 S | 186 0 0.00 0.00 43.5 86.4 0.208
8/30/26 - 0000 54.4 73 46.1 50.5 SSW | 197 1.7 4.1 SSW | 209 0 0.00 0.00 43.5 86.4 0.208
8/29/26 - 2300 56.8 70 47.2 52.1 SSW | 193 1.0 2.7 SSW | 210 0 0.00 0.00 43.5 86.4 0.208
8/29/26 - 2200 62.9 59 48.5 55.1 SSW | 192 0.2 3.4 SSW | 192 0 0.00 0.00 43.5 86.4 0.208
8/29/26 - 2100 67.2 53 49.3 57.0 SW | 218 1.3 8.4 WSW | 240 0 0.00 0.00 43.5 86.4 0.208
Max 88.5 91 56.9 64.0 - 10.1 18.8 - 849 0.00 0.00 53.6 89.3 0.208
Avg 66.2 60 49.7 56.2 - 3.7 7.9 - 272 0.00 - - - -
Min 47.4 25 44.4 46.6 - 0.2 2.7 - 0 0.00 0.00 43.5 53.4 0.000
Total - - - - - - - - - 0.00 - - - -

Last 30 Days

Bell Hill-West

Daily Data | America/Los_Angeles
as of 8/31/26 9:38 PM PDT
Date Daily Max Temp (°F) Time of Max Temp Daily Min Temp (°F) Time of Min Temp Daily Rain (In) Month Precip (In) Season Precip (In) Wind Spd (mph) Daily Max Wind (mph) Time of Max Wind Max Wind Dir (°) Daily ETo (in) 7 Day ETo (in) Daily Solar Rad (Cal/cm2) Dew Pt (°F) Daily Max RH (%) Daily Min RH (%) Hrs 70-85F (hrs) Hrs > 95F (hrs) Powdery Mildew Stress (pts) GDDs (DL) GDDs (Mx/Mn) Seas GDDs (DL) Seas GDDs (Smpl) Hrs <= 32F (hrs) Hrs <= 28F (hrs) Chilling <=45F (hrs) Chill Hrs 32-45F (hrs) Utah Chilling (Units) Degree Hrs (hrs) MinBV Day (V)
8/30/26 89.3 1633 47.2 0628 0.00 0.00 0.00 3.4 14.8 1754 S | 181 0.205 1.49 574 49.3 92 22 3.09 0.00 0 18.0 18.2 2,579 2,470 0.0 0.0 0.0 0.0 0.0 195.9 12.6
8/29/26 86.4 1445 43.5 0629 0.00 0.00 0.00 3.5 17.2 1636 WSW | 247 0.208 1.50 590 45.1 79 21 4.16 0.00 10 15.7 15.0 2,561 2,452 0.0 0.0 2.1 2.1 0.5 157.5 12.6
8/28/26 85.6 1508 49.1 0101 0.00 0.00 0.00 3.5 14.8 1505 WSW | 254 0.166 1.51 392 41.6 69 11 10.99 0.00 20 18.2 17.4 2,545 2,437 0.0 0.0 0.0 0.0 1.0 161.0 12.7
8/27/26 95.3 1610 53.8 0653 0.00 0.00 0.00 3.3 16.8 1623 WSW | 257 0.227 1.56 582 50.4 87 16 3.63 0.10 0 24.0 24.6 2,527 2,419 0.0 0.0 0.0 0.0 -16.0 277.4 12.6
8/26/26 94.3 1529 45.9 0636 0.00 0.00 0.00 3.3 17.5 1837 WSW | 238 0.224 1.56 606 46.3 84 13 3.16 0.00 0 20.6 20.1 2,503 2,395 0.0 0.0 0.0 0.0 0.0 239.3 12.6
8/25/26 92.1 1436 50.8 0550 0.00 0.00 0.00 3.7 13.5 1810 S | 175 0.227 1.57 590 47.4 81 15 3.62 0.00 0 20.9 21.4 2,482 2,375 0.0 0.0 0.0 0.0 0.0 237.8 12.6
8/24/26 93.3 1337 51.3 0618 0.00 0.00 0.00 4.0 16.2 1547 SSW | 201 0.231 1.57 590 49.4 82 14 3.18 0.00 0 21.6 22.3 2,461 2,353 0.0 0.0 0.0 0.0 0.0 244.8 12.6
8/23/26 95.0 1605 49.7 0618 0.00 0.00 0.00 3.2 13.8 1550 SSW | 212 0.216 1.56 582 50.1 90 21 2.95 0.01 0 22.1 22.4 2,440 2,331 0.0 0.0 0.0 0.0 -16.0 261.9 12.7
8/22/26 91.1 1423 48.5 0642 0.00 0.00 0.00 3.5 15.5 1519 WSW | 237 0.223 1.56 595 47.4 84 18 2.71 0.00 0 19.4 19.8 2,417 2,309 0.0 0.0 0.0 0.0 0.0 216.5 12.7
8/21/26 90.4 1342 54.2 0101 0.00 0.00 0.00 3.7 17.5 1528 SSW | 207 0.215 1.54 537 49.2 79 18 3.82 0.00 0 22.9 22.3 2,398 2,289 0.0 0.0 0.0 0.0 0.0 233.5 12.7
8/20/26 95.1 1347 54.0 0636 0.00 0.00 0.00 3.8 15.5 1723 S | 173 0.223 1.52 541 50.5 82 14 3.09 0.02 10 24.1 24.6 2,375 2,267 0.0 0.0 0.0 0.0 -16.5 273.3 12.6
8/19/26 96.6 1411 56.8 0639 0.00 0.00 0.00 4.0 15.5 1547 S | 186 0.238 1.50 585 55.4 84 25 2.71 1.69 20 26.4 26.7 2,351 2,242 0.0 0.0 0.0 0.0 -17.0 307.7 12.7
8/18/26 95.7 1419 55.8 0610 0.00 0.00 0.00 3.2 15.8 1739 SSW | 209 0.226 1.49 580 52.3 78 20 2.59 0.48 30 24.9 25.7 2,325 2,215 0.0 0.0 0.0 0.0 -16.5 286.6 12.7
8/17/26 91.4 1507 59.0 0446 0.00 0.00 0.00 3.2 15.8 1332 SSW | 204 0.216 1.50 550 51.8 80 21 3.46 0.00 40 24.0 25.2 2,300 2,190 0.0 0.0 0.0 0.0 -16.5 249.1 12.6
8/16/26 89.3 1514 50.2 0633 0.00 0.00 0.00 3.6 14.5 1650 S | 186 0.218 1.53 591 53.8 100 26 3.57 0.00 50 20.6 19.8 2,276 2,164 0.0 0.0 0.0 0.0 -16.0 221.9 12.6
8/15/26 83.6 1358 49.8 0623 0.00 0.00 0.00 3.5 14.2 1917 WSW | 238 0.198 1.58 580 55.6 100 33 11.23 0.00 60 17.3 16.7 2,255 2,145 0.0 0.0 0.0 0.0 0.0 161.1 12.7
8/14/26 80.4 1457 51.6 0631 0.00 0.00 0.00 3.8 15.5 1638 SW | 234 0.197 1.65 607 56.5 100 47 9.68 0.00 40 16.0 16.0 2,238 2,128 0.0 0.0 0.0 0.0 0.0 121.0 12.7
8/13/26 81.3 1541 53.0 0620 0.00 0.00 0.00 4.2 18.2 1440 W | 262 0.202 1.69 599 56.9 96 46 10.38 0.00 20 17.6 17.1 2,222 2,112 0.0 0.0 0.0 0.0 0.0 133.5 12.6
8/12/26 90.8 1508 54.0 0632 0.00 0.00 0.00 3.9 17.8 1517 SW | 222 0.229 1.74 604 56.4 91 29 4.15 0.00 0 23.1 22.4 2,204 2,095 0.0 0.0 0.0 0.0 -16.5 249.2 12.5
8/11/26 93.6 1359 55.4 0551 0.00 0.00 0.00 3.7 17.8 1500 S | 184 0.237 1.78 616 56.7 90 28 3.12 0.00 0 24.6 24.5 2,181 2,072 0.0 0.0 0.0 0.0 -16.5 274.3 12.6
8/10/26 98.6 1313 54.8 0623 0.00 0.00 0.00 4.2 19.8 1329 SW | 216 0.250 1.81 602 53.4 76 23 2.76 2.34 0 26.7 26.7 2,157 2,048 0.0 0.0 0.0 0.0 -17.0 326.6 12.6
8/9/26 103.1 1448 56.0 0616 0.00 0.00 0.00 3.7 15.5 1612 W | 259 0.264 1.82 641 48.4 68 14 2.19 6.33 0 29.4 29.6 2,130 2,021 0.0 0.0 0.0 0.0 -17.0 376.2 12.6
8/8/26 104.5 1455 58.9 0615 0.00 0.00 0.00 3.5 15.8 1630 WSW | 243 0.267 1.81 631 47.0 60 11 2.11 7.28 0 31.8 31.7 2,100 1,992 0.0 0.0 0.0 0.0 -18.0 421.5 12.6
8/7/26 101.8 1639 56.6 0640 0.00 0.00 0.00 3.1 14.8 1418 SSW | 200 0.239 1.81 593 52.2 84 13 2.90 6.14 0 29.5 29.2 2,069 1,960 0.0 0.0 0.0 0.0 -17.5 380.8 12.6
8/6/26 99.3 1440 55.6 0638 0.00 0.00 0.00 3.6 18.5 1532 SSW | 200 0.258 1.82 642 54.0 93 13 2.91 3.70 0 27.0 27.5 2,039 1,931 0.0 0.0 0.0 0.0 -17.0 325.9 12.6
8/5/26 98.8 1359 57.6 0558 0.00 0.00 0.00 3.8 18.8 1613 SSW | 197 0.265 1.82 650 54.4 87 17 2.68 3.29 0 27.6 28.2 2,012 1,903 0.0 0.0 0.0 0.0 -17.0 327.5 12.6
8/4/26 100.8 1408 56.5 0551 0.00 0.00 0.00 3.8 16.5 1810 S | 188 0.266 1.82 642 55.9 81 20 3.06 5.90 0 29.4 28.7 1,985 1,875 0.0 0.0 0.0 0.0 -17.5 373.0 12.6
8/3/26 102.7 1611 56.5 0611 0.00 0.00 0.00 3.2 16.8 1759 SSW | 198 0.256 1.80 646 53.3 81 15 2.94 6.43 0 29.3 29.6 1,955 1,846 0.0 0.0 0.0 0.0 -17.5 379.2 12.6
8/2/26 98.8 1626 54.4 0620 0.00 0.00 0.00 3.7 16.5 1253 WNW | 290 0.259 1.79 652 53.0 84 20 2.99 4.96 0 26.5 26.6 1,926 1,817 0.0 0.0 0.0 0.0 -17.0 326.3 12.6
8/1/26 99.0 1416 54.8 0639 0.00 0.00 0.00 3.9 16.8 1457 SSW | 202 0.269 1.79 659 52.3 87 16 2.64 4.04 0 26.2 26.9 1,899 1,790 0.0 0.0 0.0 0.0 -16.5 320.9 12.6
Max 104.5 - 59.0 - 0.00 0.00 0.00 4.2 19.8 - - 0.269 1.82 659 56.9 100 47 11.23 7.28 - 31.8 31.7 - - 0.0 0.0 2.1 2.1 1.0 421.5 12.7
Avg - - - - - - - 3.6 - - - - - - 51.5 - - 4.08 1.76 - 23.5 23.6 - - 0.0 0.0 0.1 0.1 -10.6 - -
Min 80.4 - 43.5 - 0.00 0.00 0.00 3.1 13.5 - - 0.166 1.49 392 41.6 60 11 2.11 0.00 - 15.7 15.0 - - 0.0 0.0 0.0 0.0 -18.0 121.0 12.5
Total - - - - - - - - - - - - - - - - - 122.48 52.71 - 705.4 706.8 - - 0.0 0.0 2.1 2.1 -318.0 - -

Bell Hill-West Climate Summary

Current Yeaer

Current Year | Showing 1/1/26 - 8/30/26
as of 8/31/26 9:38 PM PDT
Temperature (°F) Max Wind Gust (mph) Precip (in) Days
Month Days Avg High Avg Low Max Min Avg Max Total Daily Min Temp < 28 Daily Min Temp < 32 Daily Max Temp > 90 Daily Max Temp > 100 Daily Rain > 0.01 Daily Rain > 0.1
Jan 2026 31 60.8 33.1 74.6 23.8 11.4 35.6 3.93 7 19 0 0 6 5
Feb 2026 28 60.6 36.7 73 23.7 13.8 23.2 3.47 2 10 0 0 10 8
Mar 2026 31 76.3 38.4 92 30.1 13.8 23.2 0.02 0 2 1 0 1 0
Apr 2026 30 67.4 39.2 81.7 31.7 15.3 28.2 2.78 0 2 0 0 7 5
May 2026 31 78 45.7 89.3 36.9 16.9 33.3 0.59 0 0 0 0 3 3
Jun 2026 30 88 50.9 100.4 39.2 17.3 27.9 0 0 0 12 1 0 0
Jul 2026 31 92.6 52.9 100.1 47.6 17.5 31.6 0 0 0 25 1 0 0
Aug 2026 30 93.9 53.2 104.5 43.5 16.3 19.8 0 0 0 23 5 0 0
Total 242 - - - - - - 10.79 9 33 61 7 27 21
Average 30.2 77.3 43.8 77.3 43.8 15.3 - 1.35 1.1 4.1 7.6 0.9 3.4 2.6
Maximum 31 93.9 53.2 104.5 - - 35.6 3.93 7 19 25 5 10 8
Minimum 28 60.6 33.1 - 23.7 - - 0 0 0 0 0 0 0

Bell Hill-West Climate Summary

Last Year

Last Year | Showing 1/1/25 - 12/31/25
as of 8/31/26 9:38 PM PDT
Temperature (°F) Max Wind Gust (mph) Precip (in) Days
Month Days Avg High Avg Low Max Min Avg Max Total Daily Min Temp < 28 Daily Min Temp < 32 Daily Max Temp > 90 Daily Max Temp > 100 Daily Rain > 0.01 Daily Rain > 0.1
Jan 2025 31 60.7 29.7 69.3 22.5 10.3 19.2 0.8 16 22 0 0 3 2
Feb 2025 28 58.3 33.8 80 23.6 14.5 34.6 8.7 5 14 0 0 11 8
Mar 2025 31 58.9 36 82.1 29 18.5 43.3 4.21 0 10 0 0 11 7
Apr 2025 30 70.4 40.1 83.3 31.2 15.3 22.9 0.65 0 2 0 0 4 2
May 2025 31 78.9 44.1 98.2 36.9 16.7 23.2 0.1 0 0 2 0 1 0
Jun 2025 30 86.9 50.5 94.5 40.5 16.6 20.5 0 0 0 9 0 0 0
Jul 2025 31 89.5 53.9 99.1 45.3 16.7 20.5 0 0 0 15 0 0 0
Aug 2025 31 92.4 53.4 100.2 43.5 17 20.9 0 0 0 21 1 0 0
Sep 2025 30 85 52.7 99.6 45.5 15.6 20.9 0.36 0 0 11 0 4 2
Oct 2025 31 72 42.6 85 34.5 12.7 20.5 1.08 0 0 0 0 6 2
Nov 2025 30 65.7 39.4 80 29.7 12.1 31.6 3.58 0 3 0 0 9 4
Dec 2025 31 61.4 36 72.4 27.6 13 43.3 7.73 2 15 0 0 11 9
Total 365 - - - - - - 27.21 23 66 58 1 60 36
Average 30.4 73.4 42.7 73.4 42.7 14.9 - 2.27 1.9 5.5 4.8 0.1 5 3
Maximum 31 92.4 53.9 100.2 - - 43.3 8.7 16 22 21 1 11 9
Minimum 28 58.3 29.7 - 22.5 - - 0 0 0 0 0 0 0
Calm: 0.0%
Calm: 0.1%